sensor_id;sensor_type;location;lat;lon;timestamp;temperature;humidity
20929;DHT22;21895;47.072;15.132;2023-03-01T00:01:18;3.20;98.90
20929;DHT22;21895;47.072;15.132;2023-03-01T00:03:47;3.10;99.50
20929;DHT22;21895;47.072;15.132;2023-03-01T00:06:14;3.20;99.90
20929;DHT22;21895;47.072;15.132;2023-03-01T00:08:41;3.20;99.90
20929;DHT22;21895;47.072;15.132;2023-03-01T00:11:16;3.30;99.50
20929;DHT22;21895;47.072;15.132;2023-03-01T00:13:46;3.20;99.00
20929;DHT22;21895;47.072;15.132;2023-03-01T00:16:35;3.30;99.00
20929;DHT22;21895;47.072;15.132;2023-03-01T00:19:08;3.30;98.90
20929;DHT22;21895;47.072;15.132;2023-03-01T00:21:38;3.20;98.80
20929;DHT22;21895;47.072;15.132;2023-03-01T00:24:05;3.10;99.00
20929;DHT22;21895;47.072;15.132;2023-03-01T00:26:33;3.10;99.30
20929;DHT22;21895;47.072;15.132;2023-03-01T00:29:00;3.20;99.90
20929;DHT22;21895;47.072;15.132;2023-03-01T00:31:30;3.20;99.90
20929;DHT22;21895;47.072;15.132;2023-03-01T00:34:00;3.30;99.90
20929;DHT22;21895;47.072;15.132;2023-03-01T00:36:34;3.30;99.90
20929;DHT22;21895;47.072;15.132;2023-03-01T00:39:03;3.30;99.90
20929;DHT22;21895;47.072;15.132;2023-03-01T00:41:31;3.30;99.90
20929;DHT22;21895;47.072;15.132;2023-03-01T00:44:00;3.30;99.90
20929;DHT22;21895;47.072;15.132;2023-03-01T00:46:27;3.30;99.90
20929;DHT22;21895;47.072;15.132;2023-03-01T00:48:54;3.30;99.90
20929;DHT22;21895;47.072;15.132;2023-03-01T00:51:25;3.30;99.90
20929;DHT22;21895;47.072;15.132;2023-03-01T00:53:55;3.30;99.90
20929;DHT22;21895;47.072;15.132;2023-03-01T00:56:24;3.30;99.90
20929;DHT22;21895;47.072;15.132;2023-03-01T00:58:51;3.20;99.90
20929;DHT22;21895;47.072;15.132;2023-03-01T01:01:21;3.30;99.90
20929;DHT22;21895;47.072;15.132;2023-03-01T01:03:55;3.30;99.90
20929;DHT22;21895;47.072;15.132;2023-03-01T01:06:29;3.40;99.90
20929;DHT22;21895;47.072;15.132;2023-03-01T01:08:58;3.30;99.90
20929;DHT22;21895;47.072;15.132;2023-03-01T01:11:26;3.30;99.90
20929;DHT22;21895;47.072;15.132;2023-03-01T01:13:55;3.30;99.90
20929;DHT22;21895;47.072;15.132;2023-03-01T01:16:24;3.20;99.90
20929;DHT22;21895;47.072;15.132;2023-03-01T01:18:52;3.20;99.90
20929;DHT22;21895;47.072;15.132;2023-03-01T01:21:21;3.20;99.90
20929;DHT22;21895;47.072;15.132;2023-03-01T01:23:51;3.30;99.90
20929;DHT22;21895;47.072;15.132;2023-03-01T01:26:24;3.20;99.90
20929;DHT22;21895;47.072;15.132;2023-03-01T01:28:52;3.20;99.90
20929;DHT22;21895;47.072;15.132;2023-03-01T01:31:20;3.30;99.90
20929;DHT22;21895;47.072;15.132;2023-03-01T01:33:50;3.30;99.90
20929;DHT22;21895;47.072;15.132;2023-03-01T01:36:17;3.30;99.90
20929;DHT22;21895;47.072;15.132;2023-03-01T01:38:44;3.30;99.90
20929;DHT22;21895;47.072;15.132;2023-03-01T01:41:12;3.30;99.90
20929;DHT22;21895;47.072;15.132;2023-03-01T01:43:45;3.30;99.90
20929;DHT22;21895;47.072;15.132;2023-03-01T01:46:31;3.20;99.90
20929;DHT22;21895;47.072;15.132;2023-03-01T01:49:07;3.20;99.90
20929;DHT22;21895;47.072;15.132;2023-03-01T01:51:44;3.20;99.90
20929;DHT22;21895;47.072;15.132;2023-03-01T01:54:22;3.20;99.90
20929;DHT22;21895;47.072;15.132;2023-03-01T01:57:02;3.20;99.90
20929;DHT22;21895;47.072;15.132;2023-03-01T01:59:33;3.20;99.90
20929;DHT22;21895;47.072;15.132;2023-03-01T02:02:02;3.20;99.90
20929;DHT22;21895;47.072;15.132;2023-03-01T02:04:31;3.20;99.90
20929;DHT22;21895;47.072;15.132;2023-03-01T02:07:05;3.20;99.90
20929;DHT22;21895;47.072;15.132;2023-03-01T02:09:48;3.20;99.90
20929;DHT22;21895;47.072;15.132;2023-03-01T02:12:18;3.10;99.90
20929;DHT22;21895;47.072;15.132;2023-03-01T02:14:47;3.20;99.90
20929;DHT22;21895;47.072;15.132;2023-03-01T02:17:15;3.10;99.90
20929;DHT22;21895;47.072;15.132;2023-03-01T02:20:11;3.20;99.90
20929;DHT22;21895;47.072;15.132;2023-03-01T02:31:08;3.20;99.90
20929;DHT22;21895;47.072;15.132;2023-03-01T02:33:55;3.20;99.90
20929;DHT22;21895;47.072;15.132;2023-03-01T02:36:30;3.20;99.90
20929;DHT22;21895;47.072;15.132;2023-03-01T02:39:02;3.20;99.90
20929;DHT22;21895;47.072;15.132;2023-03-01T02:41:35;3.20;99.90
20929;DHT22;21895;47.072;15.132;2023-03-01T02:44:04;3.20;99.90
20929;DHT22;21895;47.072;15.132;2023-03-01T02:46:31;3.10;99.90
20929;DHT22;21895;47.072;15.132;2023-03-01T02:48:59;3.10;99.90
20929;DHT22;21895;47.072;15.132;2023-03-01T02:52:15;3.10;99.90
20929;DHT22;21895;47.072;15.132;2023-03-01T02:55:07;3.20;99.90
20929;DHT22;21895;47.072;15.132;2023-03-01T02:57:38;3.20;99.90
20929;DHT22;21895;47.072;15.132;2023-03-01T03:00:10;3.20;99.90
20929;DHT22;21895;47.072;15.132;2023-03-01T03:02:47;3.30;99.90
20929;DHT22;21895;47.072;15.132;2023-03-01T03:05:22;3.20;99.90
20929;DHT22;21895;47.072;15.132;2023-03-01T03:07:50;3.30;99.90
20929;DHT22;21895;47.072;15.132;2023-03-01T03:10:23;3.20;99.90
20929;DHT22;21895;47.072;15.132;2023-03-01T03:12:54;3.20;99.90
20929;DHT22;21895;47.072;15.132;2023-03-01T03:15:23;3.10;99.90
20929;DHT22;21895;47.072;15.132;2023-03-01T03:17:52;3.10;99.90
20929;DHT22;21895;47.072;15.132;2023-03-01T03:20:21;3.10;99.90
20929;DHT22;21895;47.072;15.132;2023-03-01T03:22:53;3.10;99.90
20929;DHT22;21895;47.072;15.132;2023-03-01T03:25:21;3.10;99.90
20929;DHT22;21895;47.072;15.132;2023-03-01T03:27:49;3.00;99.90
20929;DHT22;21895;47.072;15.132;2023-03-01T03:30:24;3.00;99.90
20929;DHT22;21895;47.072;15.132;2023-03-01T03:32:53;3.10;99.90
20929;DHT22;21895;47.072;15.132;2023-03-01T03:35:26;3.00;99.90
20929;DHT22;21895;47.072;15.132;2023-03-01T03:38:01;3.00;99.90
20929;DHT22;21895;47.072;15.132;2023-03-01T03:40:39;3.00;99.90
20929;DHT22;21895;47.072;15.132;2023-03-01T03:43:09;3.00;99.90
20929;DHT22;21895;47.072;15.132;2023-03-01T03:45:37;3.00;99.90
20929;DHT22;21895;47.072;15.132;2023-03-01T03:48:06;3.10;99.90
20929;DHT22;21895;47.072;15.132;2023-03-01T03:50:35;3.10;99.90
20929;DHT22;21895;47.072;15.132;2023-03-01T03:53:09;3.00;99.90
20929;DHT22;21895;47.072;15.132;2023-03-01T03:55:37;3.10;99.90
20929;DHT22;21895;47.072;15.132;2023-03-01T03:58:07;3.10;99.90
20929;DHT22;21895;47.072;15.132;2023-03-01T04:00:38;3.10;99.90
20929;DHT22;21895;47.072;15.132;2023-03-01T04:03:11;3.20;99.90
20929;DHT22;21895;47.072;15.132;2023-03-01T04:05:40;3.10;99.90
20929;DHT22;21895;47.072;15.132;2023-03-01T04:08:07;3.10;99.90
20929;DHT22;21895;47.072;15.132;2023-03-01T04:10:39;3.20;99.90
20929;DHT22;21895;47.072;15.132;2023-03-01T04:13:11;3.20;99.90
20929;DHT22;21895;47.072;15.132;2023-03-01T04:15:39;3.10;99.90
20929;DHT22;21895;47.072;15.132;2023-03-01T04:18:07;3.00;99.90
20929;DHT22;21895;47.072;15.132;2023-03-01T04:20:42;3.00;99.90
20929;DHT22;21895;47.072;15.132;2023-03-01T04:23:18;3.00;99.90
20929;DHT22;21895;47.072;15.132;2023-03-01T04:25:57;3.00;99.90
20929;DHT22;21895;47.072;15.132;2023-03-01T04:28:28;3.00;99.90
20929;DHT22;21895;47.072;15.132;2023-03-01T04:31:07;3.00;99.90
20929;DHT22;21895;47.072;15.132;2023-03-01T04:33:53;3.00;99.90
20929;DHT22;21895;47.072;15.132;2023-03-01T04:36:23;3.00;99.90
20929;DHT22;21895;47.072;15.132;2023-03-01T04:38:53;3.00;99.90
20929;DHT22;21895;47.072;15.132;2023-03-01T04:41:22;3.00;99.90
20929;DHT22;21895;47.072;15.132;2023-03-01T04:43:50;3.00;99.90
20929;DHT22;21895;47.072;15.132;2023-03-01T04:46:18;3.00;99.90
20929;DHT22;21895;47.072;15.132;2023-03-01T04:48:46;2.90;99.90
20929;DHT22;21895;47.072;15.132;2023-03-01T04:51:13;2.90;99.90
20929;DHT22;21895;47.072;15.132;2023-03-01T04:53:41;2.80;99.90
20929;DHT22;21895;47.072;15.132;2023-03-01T04:56:08;2.90;99.90
20929;DHT22;21895;47.072;15.132;2023-03-01T04:58:34;2.90;99.90
20929;DHT22;21895;47.072;15.132;2023-03-01T05:01:01;2.90;99.90
20929;DHT22;21895;47.072;15.132;2023-03-01T05:03:45;2.90;99.90
20929;DHT22;21895;47.072;15.132;2023-03-01T05:06:14;2.90;99.90
20929;DHT22;21895;47.072;15.132;2023-03-01T05:08:42;3.00;99.90
20929;DHT22;21895;47.072;15.132;2023-03-01T05:11:10;3.00;99.90
20929;DHT22;21895;47.072;15.132;2023-03-01T05:13:38;2.90;99.90
20929;DHT22;21895;47.072;15.132;2023-03-01T05:16:06;2.90;99.90
20929;DHT22;21895;47.072;15.132;2023-03-01T05:18:37;2.90;99.90
20929;DHT22;21895;47.072;15.132;2023-03-01T05:21:10;3.00;99.90
20929;DHT22;21895;47.072;15.132;2023-03-01T05:23:39;2.90;99.90
20929;DHT22;21895;47.072;15.132;2023-03-01T05:26:06;2.90;99.90
20929;DHT22;21895;47.072;15.132;2023-03-01T05:28:48;2.90;99.90
20929;DHT22;21895;47.072;15.132;2023-03-01T05:31:15;2.90;99.90
20929;DHT22;21895;47.072;15.132;2023-03-01T05:33:41;2.90;99.90
20929;DHT22;21895;47.072;15.132;2023-03-01T05:36:09;3.00;99.90
20929;DHT22;21895;47.072;15.132;2023-03-01T05:38:36;3.00;99.90
20929;DHT22;21895;47.072;15.132;2023-03-01T05:41:03;3.00;99.90
20929;DHT22;21895;47.072;15.132;2023-03-01T05:43:32;3.00;99.90
20929;DHT22;21895;47.072;15.132;2023-03-01T05:45:59;3.00;99.90
20929;DHT22;21895;47.072;15.132;2023-03-01T05:48:26;3.00;99.90
20929;DHT22;21895;47.072;15.132;2023-03-01T05:50:52;3.00;99.90
20929;DHT22;21895;47.072;15.132;2023-03-01T05:53:20;3.00;99.90
20929;DHT22;21895;47.072;15.132;2023-03-01T05:55:47;3.10;99.90
20929;DHT22;21895;47.072;15.132;2023-03-01T05:58:17;3.10;99.90
20929;DHT22;21895;47.072;15.132;2023-03-01T06:00:47;3.10;99.90
20929;DHT22;21895;47.072;15.132;2023-03-01T06:03:16;3.10;99.90
20929;DHT22;21895;47.072;15.132;2023-03-01T06:05:43;3.10;99.90
20929;DHT22;21895;47.072;15.132;2023-03-01T06:08:11;3.20;99.90
20929;DHT22;21895;47.072;15.132;2023-03-01T06:10:39;3.10;99.90
20929;DHT22;21895;47.072;15.132;2023-03-01T06:13:06;3.10;99.90
20929;DHT22;21895;47.072;15.132;2023-03-01T06:15:33;3.10;99.90
20929;DHT22;21895;47.072;15.132;2023-03-01T06:17:59;3.10;99.90
20929;DHT22;21895;47.072;15.132;2023-03-01T06:20:29;3.10;99.90
20929;DHT22;21895;47.072;15.132;2023-03-01T06:22:55;3.10;99.90
20929;DHT22;21895;47.072;15.132;2023-03-01T06:25:24;3.20;99.90
20929;DHT22;21895;47.072;15.132;2023-03-01T06:27:52;3.10;99.90
20929;DHT22;21895;47.072;15.132;2023-03-01T06:30:20;3.10;99.90
20929;DHT22;21895;47.072;15.132;2023-03-01T06:32:47;3.10;99.90
20929;DHT22;21895;47.072;15.132;2023-03-01T06:35:15;3.10;99.90
20929;DHT22;21895;47.072;15.132;2023-03-01T06:37:44;3.10;99.90
20929;DHT22;21895;47.072;15.132;2023-03-01T06:40:13;3.10;99.90
20929;DHT22;21895;47.072;15.132;2023-03-01T06:42:43;3.20;99.90
20929;DHT22;21895;47.072;15.132;2023-03-01T06:45:14;3.20;99.90
20929;DHT22;21895;47.072;15.132;2023-03-01T06:47:41;3.30;99.90
20929;DHT22;21895;47.072;15.132;2023-03-01T06:50:09;3.30;99.90
20929;DHT22;21895;47.072;15.132;2023-03-01T06:52:36;3.30;99.90
20929;DHT22;21895;47.072;15.132;2023-03-01T06:55:04;3.30;99.90
20929;DHT22;21895;47.072;15.132;2023-03-01T06:57:31;3.30;99.90
20929;DHT22;21895;47.072;15.132;2023-03-01T06:59:57;3.40;99.90
20929;DHT22;21895;47.072;15.132;2023-03-01T07:02:24;3.40;99.90
20929;DHT22;21895;47.072;15.132;2023-03-01T07:04:51;3.40;99.90
20929;DHT22;21895;47.072;15.132;2023-03-01T07:07:17;3.50;99.90
20929;DHT22;21895;47.072;15.132;2023-03-01T07:09:45;3.50;99.90
20929;DHT22;21895;47.072;15.132;2023-03-01T07:12:12;3.50;99.90
20929;DHT22;21895;47.072;15.132;2023-03-01T07:14:39;3.50;99.90
20929;DHT22;21895;47.072;15.132;2023-03-01T07:17:05;3.50;99.90
20929;DHT22;21895;47.072;15.132;2023-03-01T07:19:32;3.50;99.90
20929;DHT22;21895;47.072;15.132;2023-03-01T07:21:58;3.60;99.90
20929;DHT22;21895;47.072;15.132;2023-03-01T07:24:25;3.60;99.90
20929;DHT22;21895;47.072;15.132;2023-03-01T07:26:52;3.70;99.90
20929;DHT22;21895;47.072;15.132;2023-03-01T07:29:19;3.70;99.90
20929;DHT22;21895;47.072;15.132;2023-03-01T07:31:45;3.70;99.90
20929;DHT22;21895;47.072;15.132;2023-03-01T07:34:12;3.80;99.90
20929;DHT22;21895;47.072;15.132;2023-03-01T07:36:38;3.90;99.90
20929;DHT22;21895;47.072;15.132;2023-03-01T07:39:09;3.80;99.90
20929;DHT22;21895;47.072;15.132;2023-03-01T07:41:36;3.80;99.90
20929;DHT22;21895;47.072;15.132;2023-03-01T07:44:03;3.80;99.90
20929;DHT22;21895;47.072;15.132;2023-03-01T07:46:30;3.80;99.90
20929;DHT22;21895;47.072;15.132;2023-03-01T07:48:57;3.90;99.90
20929;DHT22;21895;47.072;15.132;2023-03-01T07:51:24;3.90;99.90
20929;DHT22;21895;47.072;15.132;2023-03-01T07:53:50;4.10;99.90
20929;DHT22;21895;47.072;15.132;2023-03-01T07:56:17;4.30;99.60
20929;DHT22;21895;47.072;15.132;2023-03-01T07:58:44;4.30;99.30
20929;DHT22;21895;47.072;15.132;2023-03-01T08:01:14;4.10;99.70
20929;DHT22;21895;47.072;15.132;2023-03-01T08:03:43;4.10;99.90
20929;DHT22;21895;47.072;15.132;2023-03-01T08:06:11;4.00;99.90
20929;DHT22;21895;47.072;15.132;2023-03-01T08:08:39;4.00;99.90
20929;DHT22;21895;47.072;15.132;2023-03-01T08:11:08;4.20;99.60
20929;DHT22;21895;47.072;15.132;2023-03-01T08:13:37;4.20;99.80
20929;DHT22;21895;47.072;15.132;2023-03-01T08:16:10;4.30;99.90
20929;DHT22;21895;47.072;15.132;2023-03-01T08:18:38;4.40;99.60
20929;DHT22;21895;47.072;15.132;2023-03-01T08:21:11;4.50;99.50
20929;DHT22;21895;47.072;15.132;2023-03-01T08:23:42;4.60;98.70
20929;DHT22;21895;47.072;15.132;2023-03-01T08:26:18;4.50;99.00
20929;DHT22;21895;47.072;15.132;2023-03-01T08:28:47;4.50;98.60
20929;DHT22;21895;47.072;15.132;2023-03-01T08:31:26;4.50;98.50
20929;DHT22;21895;47.072;15.132;2023-03-01T08:33:58;4.60;96.60
20929;DHT22;21895;47.072;15.132;2023-03-01T08:36:32;4.60;96.00
20929;DHT22;21895;47.072;15.132;2023-03-01T08:39:00;4.80;96.30
20929;DHT22;21895;47.072;15.132;2023-03-01T08:41:27;4.90;95.00
20929;DHT22;21895;47.072;15.132;2023-03-01T08:43:55;5.00;93.40
20929;DHT22;21895;47.072;15.132;2023-03-01T08:46:26;5.00;93.30
20929;DHT22;21895;47.072;15.132;2023-03-01T08:48:54;5.00;92.40
20929;DHT22;21895;47.072;15.132;2023-03-01T08:51:21;5.00;92.50
20929;DHT22;21895;47.072;15.132;2023-03-01T08:53:48;5.00;92.50
20929;DHT22;21895;47.072;15.132;2023-03-01T08:56:16;5.20;92.40
20929;DHT22;21895;47.072;15.132;2023-03-01T08:58:45;5.20;92.40
20929;DHT22;21895;47.072;15.132;2023-03-01T09:01:15;5.20;92.20
20929;DHT22;21895;47.072;15.132;2023-03-01T09:03:44;5.30;92.10
20929;DHT22;21895;47.072;15.132;2023-03-01T09:06:11;5.20;92.20
20929;DHT22;21895;47.072;15.132;2023-03-01T09:08:42;5.10;92.40
20929;DHT22;21895;47.072;15.132;2023-03-01T09:11:14;5.00;92.40
20929;DHT22;21895;47.072;15.132;2023-03-01T09:13:43;4.90;92.50
20929;DHT22;21895;47.072;15.132;2023-03-01T09:16:11;5.00;93.10
20929;DHT22;21895;47.072;15.132;2023-03-01T09:18:39;5.00;93.00
20929;DHT22;21895;47.072;15.132;2023-03-01T09:21:14;5.20;92.60
20929;DHT22;21895;47.072;15.132;2023-03-01T09:23:44;5.30;92.70
20929;DHT22;21895;47.072;15.132;2023-03-01T09:26:18;5.50;92.10
20929;DHT22;21895;47.072;15.132;2023-03-01T09:28:49;5.70;92.20
20929;DHT22;21895;47.072;15.132;2023-03-01T09:31:18;6.00;92.10
20929;DHT22;21895;47.072;15.132;2023-03-01T09:33:47;6.10;91.00
20929;DHT22;21895;47.072;15.132;2023-03-01T09:36:18;6.00;91.00
20929;DHT22;21895;47.072;15.132;2023-03-01T09:38:47;6.10;91.50
20929;DHT22;21895;47.072;15.132;2023-03-01T09:42:00;6.10;91.40
20929;DHT22;21895;47.072;15.132;2023-03-01T09:45:27;6.30;90.80
20929;DHT22;21895;47.072;15.132;2023-03-01T09:48:02;6.30;90.40
20929;DHT22;21895;47.072;15.132;2023-03-01T09:50:39;6.20;91.00
20929;DHT22;21895;47.072;15.132;2023-03-01T09:53:14;6.20;90.30
20929;DHT22;21895;47.072;15.132;2023-03-01T10:02:52;6.20;91.30
20929;DHT22;21895;47.072;15.132;2023-03-01T10:06:27;6.30;91.00
20929;DHT22;21895;47.072;15.132;2023-03-01T10:09:07;6.30;90.90
20929;DHT22;21895;47.072;15.132;2023-03-01T10:11:43;6.30;90.70
20929;DHT22;21895;47.072;15.132;2023-03-01T10:14:33;6.20;91.00
20929;DHT22;21895;47.072;15.132;2023-03-01T10:17:32;6.20;91.60
20929;DHT22;21895;47.072;15.132;2023-03-01T10:20:22;6.30;91.50
20929;DHT22;21895;47.072;15.132;2023-03-01T10:22:51;6.40;91.40
20929;DHT22;21895;47.072;15.132;2023-03-01T10:29:56;6.30;90.90
20929;DHT22;21895;47.072;15.132;2023-03-01T10:32:43;6.30;91.30
20929;DHT22;21895;47.072;15.132;2023-03-01T10:35:43;6.30;91.00
20929;DHT22;21895;47.072;15.132;2023-03-01T10:38:12;6.30;91.40
20929;DHT22;21895;47.072;15.132;2023-03-01T10:40:54;6.40;90.80
20929;DHT22;21895;47.072;15.132;2023-03-01T10:43:28;6.40;90.60
20929;DHT22;21895;47.072;15.132;2023-03-01T10:46:34;6.40;90.90
20929;DHT22;21895;47.072;15.132;2023-03-01T10:49:15;6.40;90.60
20929;DHT22;21895;47.072;15.132;2023-03-01T10:51:46;6.30;90.50
20929;DHT22;21895;47.072;15.132;2023-03-01T10:54:36;6.30;90.30
20929;DHT22;21895;47.072;15.132;2023-03-01T10:57:05;6.00;91.00
20929;DHT22;21895;47.072;15.132;2023-03-01T10:59:34;6.00;90.90
20929;DHT22;21895;47.072;15.132;2023-03-01T11:06:58;5.80;91.50
20929;DHT22;21895;47.072;15.132;2023-03-01T11:09:31;5.70;91.60
20929;DHT22;21895;47.072;15.132;2023-03-01T11:12:13;5.60;91.70
20929;DHT22;21895;47.072;15.132;2023-03-01T11:14:49;5.60;92.40
20929;DHT22;21895;47.072;15.132;2023-03-01T11:17:24;5.50;92.30
20929;DHT22;21895;47.072;15.132;2023-03-01T11:20:20;5.50;92.20
20929;DHT22;21895;47.072;15.132;2023-03-01T11:23:14;5.50;92.60
20929;DHT22;21895;47.072;15.132;2023-03-01T11:25:43;5.50;92.50
20929;DHT22;21895;47.072;15.132;2023-03-01T11:28:19;5.50;92.50
20929;DHT22;21895;47.072;15.132;2023-03-01T11:31:20;5.50;92.40
20929;DHT22;21895;47.072;15.132;2023-03-01T11:38:25;5.60;92.20
20929;DHT22;21895;47.072;15.132;2023-03-01T11:41:02;5.80;91.60
20929;DHT22;21895;47.072;15.132;2023-03-01T11:44:16;5.90;91.60
20929;DHT22;21895;47.072;15.132;2023-03-01T12:10:14;6.20;91.80
20929;DHT22;21895;47.072;15.132;2023-03-01T12:20:45;6.40;91.20
20929;DHT22;21895;47.072;15.132;2023-03-01T12:24:32;6.80;91.60
20929;DHT22;21895;47.072;15.132;2023-03-01T12:27:39;6.90;91.30
20929;DHT22;21895;47.072;15.132;2023-03-01T12:43:07;7.50;90.90
20929;DHT22;21895;47.072;15.132;2023-03-01T12:47:20;7.50;90.70
20929;DHT22;21895;47.072;15.132;2023-03-01T12:50:11;7.70;91.00
20929;DHT22;21895;47.072;15.132;2023-03-01T12:52:56;7.70;91.00
20929;DHT22;21895;47.072;15.132;2023-03-01T12:56:45;7.60;90.40
20929;DHT22;21895;47.072;15.132;2023-03-01T12:59:37;7.60;91.20
20929;DHT22;21895;47.072;15.132;2023-03-01T13:02:31;7.70;90.90
20929;DHT22;21895;47.072;15.132;2023-03-01T13:05:29;7.70;91.00
20929;DHT22;21895;47.072;15.132;2023-03-01T13:08:47;7.70;90.90
20929;DHT22;21895;47.072;15.132;2023-03-01T13:11:23;7.90;90.50
20929;DHT22;21895;47.072;15.132;2023-03-01T13:13:50;7.80;90.60
20929;DHT22;21895;47.072;15.132;2023-03-01T13:21:08;7.60;91.50
20929;DHT22;21895;47.072;15.132;2023-03-01T13:23:37;7.60;91.60
20929;DHT22;21895;47.072;15.132;2023-03-01T13:26:10;7.50;91.20
20929;DHT22;21895;47.072;15.132;2023-03-01T13:28:53;7.60;90.90
20929;DHT22;21895;47.072;15.132;2023-03-01T13:31:57;7.50;91.20
20929;DHT22;21895;47.072;15.132;2023-03-01T13:34:42;7.60;90.90
20929;DHT22;21895;47.072;15.132;2023-03-01T13:37:19;7.70;90.90
20929;DHT22;21895;47.072;15.132;2023-03-01T13:39:58;7.60;90.80
20929;DHT22;21895;47.072;15.132;2023-03-01T13:42:42;7.50;90.40
20929;DHT22;21895;47.072;15.132;2023-03-01T13:45:42;7.50;91.20
20929;DHT22;21895;47.072;15.132;2023-03-01T13:48:27;7.50;91.40
20929;DHT22;21895;47.072;15.132;2023-03-01T13:51:02;7.50;91.50
20929;DHT22;21895;47.072;15.132;2023-03-01T13:53:34;7.50;91.10
20929;DHT22;21895;47.072;15.132;2023-03-01T13:56:12;7.40;91.50
20929;DHT22;21895;47.072;15.132;2023-03-01T13:59:01;7.30;91.70
20929;DHT22;21895;47.072;15.132;2023-03-01T14:01:39;7.20;92.20
20929;DHT22;21895;47.072;15.132;2023-03-01T14:04:29;7.20;92.00
20929;DHT22;21895;47.072;15.132;2023-03-01T14:07:20;7.30;91.80
20929;DHT22;21895;47.072;15.132;2023-03-01T14:10:02;7.20;91.70
20929;DHT22;21895;47.072;15.132;2023-03-01T14:13:54;7.20;91.90
20929;DHT22;21895;47.072;15.132;2023-03-01T14:21:31;6.90;92.00
20929;DHT22;21895;47.072;15.132;2023-03-01T14:23:58;6.80;91.90
20929;DHT22;21895;47.072;15.132;2023-03-01T14:26:25;6.90;92.10
20929;DHT22;21895;47.072;15.132;2023-03-01T14:28:52;6.90;92.40
20929;DHT22;21895;47.072;15.132;2023-03-01T14:31:37;6.90;92.20
20929;DHT22;21895;47.072;15.132;2023-03-01T14:34:21;6.90;92.10
20929;DHT22;21895;47.072;15.132;2023-03-01T14:36:49;6.80;92.60
20929;DHT22;21895;47.072;15.132;2023-03-01T14:39:23;6.90;92.30
20929;DHT22;21895;47.072;15.132;2023-03-01T14:41:52;6.90;92.50
20929;DHT22;21895;47.072;15.132;2023-03-01T14:44:22;7.00;92.40
20929;DHT22;21895;47.072;15.132;2023-03-01T14:46:56;7.00;92.50
20929;DHT22;21895;47.072;15.132;2023-03-01T14:49:26;7.10;91.90
20929;DHT22;21895;47.072;15.132;2023-03-01T14:52:05;7.10;92.10
20929;DHT22;21895;47.072;15.132;2023-03-01T14:54:43;7.20;92.10
20929;DHT22;21895;47.072;15.132;2023-03-01T14:57:16;7.20;92.30
20929;DHT22;21895;47.072;15.132;2023-03-01T14:59:45;7.20;91.80
20929;DHT22;21895;47.072;15.132;2023-03-01T15:02:15;7.10;91.90
20929;DHT22;21895;47.072;15.132;2023-03-01T15:04:47;7.10;92.50
20929;DHT22;21895;47.072;15.132;2023-03-01T15:07:19;7.00;92.50
20929;DHT22;21895;47.072;15.132;2023-03-01T15:09:46;7.00;92.70
20929;DHT22;21895;47.072;15.132;2023-03-01T15:12:34;7.10;93.10
20929;DHT22;21895;47.072;15.132;2023-03-01T15:15:29;7.10;93.00
20929;DHT22;21895;47.072;15.132;2023-03-01T15:18:16;7.20;93.30
20929;DHT22;21895;47.072;15.132;2023-03-01T15:20:46;7.20;93.80
20929;DHT22;21895;47.072;15.132;2023-03-01T15:23:25;7.20;93.90
20929;DHT22;21895;47.072;15.132;2023-03-01T15:25:54;7.10;94.20
20929;DHT22;21895;47.072;15.132;2023-03-01T15:28:31;7.00;94.60
20929;DHT22;21895;47.072;15.132;2023-03-01T15:31:22;7.00;94.70
20929;DHT22;21895;47.072;15.132;2023-03-01T15:33:51;7.00;94.40
20929;DHT22;21895;47.072;15.132;2023-03-01T15:36:53;6.90;94.70
20929;DHT22;21895;47.072;15.132;2023-03-01T15:39:35;6.90;95.00
20929;DHT22;21895;47.072;15.132;2023-03-01T15:42:36;6.90;94.70
20929;DHT22;21895;47.072;15.132;2023-03-01T15:46:55;6.80;94.30
20929;DHT22;21895;47.072;15.132;2023-03-01T15:49:55;6.80;94.70
20929;DHT22;21895;47.072;15.132;2023-03-01T15:52:26;6.70;95.10
20929;DHT22;21895;47.072;15.132;2023-03-01T15:55:00;6.60;95.30
20929;DHT22;21895;47.072;15.132;2023-03-01T15:57:28;6.50;95.30
20929;DHT22;21895;47.072;15.132;2023-03-01T15:59:55;6.50;95.70
20929;DHT22;21895;47.072;15.132;2023-03-01T16:02:23;6.50;95.80
20929;DHT22;21895;47.072;15.132;2023-03-01T16:04:50;6.30;96.50
20929;DHT22;21895;47.072;15.132;2023-03-01T16:07:17;6.20;96.60
20929;DHT22;21895;47.072;15.132;2023-03-01T16:09:43;6.20;96.80
20929;DHT22;21895;47.072;15.132;2023-03-01T16:12:14;6.30;96.80
20929;DHT22;21895;47.072;15.132;2023-03-01T16:14:42;6.30;96.90
20929;DHT22;21895;47.072;15.132;2023-03-01T16:17:08;6.20;97.30
20929;DHT22;21895;47.072;15.132;2023-03-01T16:19:37;6.20;97.90
20929;DHT22;21895;47.072;15.132;2023-03-01T16:22:04;6.20;98.40
20929;DHT22;21895;47.072;15.132;2023-03-01T16:24:31;6.10;99.20
20929;DHT22;21895;47.072;15.132;2023-03-01T16:26:57;6.10;99.30
20929;DHT22;21895;47.072;15.132;2023-03-01T16:29:24;6.10;99.20
20929;DHT22;21895;47.072;15.132;2023-03-01T16:31:50;6.10;99.40
20929;DHT22;21895;47.072;15.132;2023-03-01T16:34:17;6.20;99.80
20929;DHT22;21895;47.072;15.132;2023-03-01T16:36:43;6.10;99.90
20929;DHT22;21895;47.072;15.132;2023-03-01T16:39:10;6.10;99.90
20929;DHT22;21895;47.072;15.132;2023-03-01T16:41:36;6.10;99.90
20929;DHT22;21895;47.072;15.132;2023-03-01T16:44:03;6.10;99.90
20929;DHT22;21895;47.072;15.132;2023-03-01T16:46:29;6.00;99.90
20929;DHT22;21895;47.072;15.132;2023-03-01T16:48:56;6.00;99.90
20929;DHT22;21895;47.072;15.132;2023-03-01T16:51:23;5.90;99.90
20929;DHT22;21895;47.072;15.132;2023-03-01T16:53:50;5.90;99.90
20929;DHT22;21895;47.072;15.132;2023-03-01T16:56:18;5.90;99.90
20929;DHT22;21895;47.072;15.132;2023-03-01T16:58:45;5.80;99.90
20929;DHT22;21895;47.072;15.132;2023-03-01T17:01:17;5.90;99.90
20929;DHT22;21895;47.072;15.132;2023-03-01T17:03:46;5.90;99.90
20929;DHT22;21895;47.072;15.132;2023-03-01T17:06:18;5.80;99.90
20929;DHT22;21895;47.072;15.132;2023-03-01T17:08:46;5.80;99.90
20929;DHT22;21895;47.072;15.132;2023-03-01T17:11:15;5.80;99.90
20929;DHT22;21895;47.072;15.132;2023-03-01T17:13:44;5.80;99.90
20929;DHT22;21895;47.072;15.132;2023-03-01T17:16:14;5.80;99.90
20929;DHT22;21895;47.072;15.132;2023-03-01T17:18:42;5.70;99.90
20929;DHT22;21895;47.072;15.132;2023-03-01T17:21:09;5.70;99.90
20929;DHT22;21895;47.072;15.132;2023-03-01T17:23:40;5.60;99.90
20929;DHT22;21895;47.072;15.132;2023-03-01T17:26:09;5.70;99.90
20929;DHT22;21895;47.072;15.132;2023-03-01T17:28:36;5.60;99.90
20929;DHT22;21895;47.072;15.132;2023-03-01T17:31:05;5.70;99.90
20929;DHT22;21895;47.072;15.132;2023-03-01T17:33:32;5.70;99.90
20929;DHT22;21895;47.072;15.132;2023-03-01T17:35:59;5.60;99.90
20929;DHT22;21895;47.072;15.132;2023-03-01T17:38:26;5.60;99.90